This is the latest recevied weather packets stored in our database for station/object N9CQS-13. If no packets are shown the sender has not sent any weather packets the latest 10 day(s).
| Time | Temp. | Humidity | Pressure | Rain* | Wind** | Luminosity | Snow |
|---|---|---|---|---|---|---|---|
| 1777570292 | 17.22° C | 39% | 1017.7 hPa | 0 mm | - | - | - |
| 1777569692 | 17.22° C | 39% | 1017.7 hPa | 0 mm | - | - | - |
| 1777569092 | 16.67° C | 41% | 1017.7 hPa | 0 mm | - | - | - |
| 1777568492 | 16.11° C | 41% | 1017.8 hPa | 0 mm | - | - | - |
| 1777567892 | 16.11° C | 40% | 1018 hPa | 0 mm | - | - | - |
| 1777567292 | 16.11° C | 43% | 1017.9 hPa | 0 mm | - | - | - |
| 1777566692 | 16.11° C | 42% | 1017.9 hPa | 0 mm | - | - | - |
| 1777566092 | 15° C | 45% | 1018.2 hPa | 0 mm | - | - | - |
| 1777565492 | 15° C | 45% | 1018.1 hPa | 0 mm | - | - | - |
| 1777564892 | 15° C | 43% | 1018.1 hPa | 0 mm | - | - | - |
| 1777564292 | 14.44° C | 49% | 1018.3 hPa | 0 mm | - | - | - |
| 1777563692 | 13.89° C | 50% | 1018.4 hPa | 0 mm | - | - | - |
| 1777563092 | 13.89° C | 50% | 1018.4 hPa | 0 mm | - | - | - |
| 1777562492 | 13.33° C | 53% | 1018.6 hPa | 0 mm | - | - | - |
| 1777561892 | 12.78° C | 57% | 1018.9 hPa | 0 mm | - | - | - |
| 1777561292 | 12.78° C | 57% | 1018.8 hPa | 0 mm | - | - | - |
| 1777560692 | 12.22° C | 58% | 1019 hPa | 0 mm | - | - | - |
| 1777560092 | 11.67° C | 58% | 1018.9 hPa | 0 mm | - | - | - |
| 1777559492 | 11.67° C | 62% | 1019.2 hPa | 0 mm | - | - | - |
| 1777558892 | 11.11° C | 66% | 1019.2 hPa | 0 mm | - | - | - |
| 1777558292 | 10.56° C | 69% | 1019.2 hPa | 0 mm | - | - | - |
| 1777557692 | 10° C | 72% | 1019.1 hPa | 0 mm | - | - | - |
| 1777557092 | 9.44° C | 75% | 1019 hPa | 0 mm | - | - | - |
| 1777556492 | 8.89° C | 80% | 1019.1 hPa | 0 mm | - | - | - |
| 1777555893 | 7.78° C | 83% | 1019.1 hPa | 0 mm | - | - | - |
* Rain latest hour (hover to see other rain measurements)
** Current wind speed in m/s (hover to see current wind gust speed)